Philippe Le Goff

Chefscout - Olympique Lyonnais
19 Aug 2027
Donnerstag
Verarbeitung

Persönlichkeit

Anpassungsfähigkeit (2) Ehrgeiz (14) Kontroverse (7) Loyalität (13) Druck (18) Professionalität (20) Fairness (18) Temperament (11)

Profil

Trainerstil Demokratisch
Lizenz Kontinentale B
Entschlossenheit 7
Menschenführung 11
Motivation 13
Disziplin 13
Arbeitszufriedenheit
93%
Ermüdung
0%
Rolle Chefscout
Gehalt 58.6K p/W
Vertrag 14.03.2028

Leistung

Verhalten Gut
Trainingseffektivität
40%
Spielerentwicklung
35%
Verletzungsprävention
70%
Taktische Umsetzung
50%

Letzte Ereignisse

Nahm an einer Scouting-Besprechung teil jetzt
Empfahl ein Transferziel jetzt
Empfahl ein Transferziel jetzt
Empfahl ein Transferziel jetzt
Empfahl ein Transferziel 7T her
Spieler begutachtet 7T her
Spieler begutachtet 7T her
Legte dem Vorstand ein Dossier vor 7T her

Aktuell beobachtet

140
Spieler Verein Status Fähigkeit Vertrauen Beobachtet Zuletzt beobachtet Letzte Stimme
Marvelous Freedom Ikorodu City Aktiv 76 / 97 40% 1 11.08.2027 -
Victor Castillo Ceará Verhandlung 131 / 136 40% 1 11.08.2027 -
Kazunari Kita Real Sociedad Aktiv 110 / 108 40% 1 10.08.2027 -
Darryl Bakola Padova Aktiv 110 / 127 40% 1 10.08.2027 -
Moses Simon Paris FC Aktiv 139 / 136 62% 1 02.06.2027 Befürworten
Taty Castellanos West Ham United Aktiv 143 / 144 40% 7 01.06.2027 -
Bitello SC Freiburg Verhandlung 135 / 135 68% 1 01.06.2027 Befürworten
Youri Baas Bournemouth Aktiv 144 / 147 67% 1 01.06.2027 Befürworten
Adnan Courtois KV Oostende Aktiv 131 / 133 40% 8 30.05.2027 -
Gonçalo Ramos AC Milan Aktiv 165 / 157 40% 9 30.05.2027 -
Lautaro Martínez Inter Aktiv 173 / 170 40% 7 29.05.2027 -
Osame Sahraoui LOSC Lille Aktiv 140 / 141 40% 2 29.05.2027 -
Yeremy Pino Crystal Palace Aktiv 142 / 147 40% 1 29.05.2027 -
Christian Pulisic AC Milan Aktiv 165 / 162 40% 2 27.05.2027 -
Folarin Balogun Monaco Aktiv 137 / 141 40% 7 27.05.2027 -
Georginio Rutter Brighton Aktiv 146 / 147 40% 8 26.05.2027 -
Kenan Yıldız Juventus Aktiv 164 / 164 40% 1 26.05.2027 -
Borja Sainz Fiorentina Aktiv 149 / 148 40% 1 26.05.2027 -
Tammy Abraham Aston Villa Aktiv 151 / 143 40% 5 22.05.2027 -
Giacomo Raspadori Atalanta Aktiv 155 / 142 40% 9 20.05.2027 -
Nicolò Zaniolo Udinese Aktiv 151 / 145 40% 1 20.05.2027 -
Ismaïla Sarr Crystal Palace Aktiv 147 / 147 40% 4 19.05.2027 -
Dango Ouattara Brentford Aktiv 142 / 144 40% 10 18.05.2027 -
Dávid Strelec Middlesbrough Aktiv 135 / 138 40% 3 15.05.2027 -
Mateo Retegui Tottenham Aktiv 159 / 157 40% 1 15.05.2027 -
Mikkel Damsgaard Brentford Aktiv 139 / 146 40% 2 12.05.2027 -
Jens Odgaard Bologna Aktiv 146 / 136 40% 3 12.05.2027 -
Jacob Ramsey Newcastle United Aktiv 145 / 147 40% 2 12.05.2027 -
Derensili Sanches Fernandes Huddersfield Town Aktiv 131 / 124 40% 1 12.05.2027 -
Thiago Brentford Aktiv 149 / 150 40% 4 10.05.2027 -
Vitinha Paris Saint-Germain Aktiv 189 / 176 40% 2 09.05.2027 -
Tyler Adams Bournemouth Aktiv 156 / 154 40% 1 09.05.2027 -
Nicolas Jackson Aston Villa Aktiv 142 / 148 40% 3 04.05.2027 Beobachten
Alejandro Zendejas Club America Aktiv 142 / 134 40% 1 04.05.2027 -
Erick Sánchez OGC Nice Aktiv 148 / 135 40% 1 04.05.2027 -
Gonzalo Fulham Aktiv 144 / 148 40% 7 27.04.2027 -
Andrea Pinamonti Lazio Aktiv 136 / 135 40% 7 27.04.2027 -
Barış Alper Yılmaz Galatasaray Aktiv 145 / 148 40% 5 26.04.2027 -
Mateo Pellegrino Fiorentina Aktiv 137 / 139 40% 3 24.04.2027 -
Romelu Castagne KV Oostende Aktiv 136 / 135 40% 5 23.04.2027 -
Ali Ahmed Norwich City Aktiv 127 / 121 40% 1 21.04.2027 -
Tom Fellows Southampton Aktiv 137 / 130 40% 1 21.04.2027 -
Joaquín Panichelli Le Havre AC Aktiv 144 / 142 40% 14 20.04.2027 -
Callum Hudson-Odoi Nottingham Forest Aktiv 142 / 147 40% 2 18.04.2027 Mehr Infos nötig
Ansu Fati Monaco Aktiv 150 / 134 40% 8 17.04.2027 -
Dodi Lukébakio Benfica Aktiv 150 / 147 40% 6 12.04.2027 -
Curtis Jones Inter Aktiv 167 / 159 40% 3 12.04.2027 -
Maghnes Akliouche Paris Saint-Germain Aktiv 140 / 144 40% 2 12.04.2027 -
Pau Víctor AVS Aktiv 135 / 141 40% 1 10.04.2027 -
Carlos Vicente Birmingham Aktiv 136 / 142 40% 1 30.03.2027 -
Jan Virgili Club Brugge Aktiv 140 / 133 40% 2 28.03.2027 -
Kevin Fulham Aktiv 142 / 147 40% 1 28.03.2027 -
Razvan Balasa Crvena Zvezda Aktiv 156 / 147 40% 6 26.03.2027 -
Petar Musa Adana Demirspor Aktiv 135 / 135 40% 6 23.03.2027 -
Ozziel Herrera Tigres Aktiv 116 / 133 40% 1 23.03.2027 -
Iker Benito Queretaro Aktiv 112 / 129 40% 1 23.03.2027 -
Ilan Kebbal Paris FC Aktiv 134 / 130 40% 1 21.03.2027 -
Thorgan Witsel KV Oostende Aktiv 130 / 134 40% 2 19.03.2027 -
Léo Scienza Southampton Aktiv 148 / 137 40% 1 19.03.2027 -
Rodrigo Zalazar Sporting CP Aktiv 159 / 149 40% 2 17.03.2027 -
Kiernan Dewsbury-Hall Everton Aktiv 145 / 147 40% 2 16.03.2027 -
João Neves Paris Saint-Germain Aktiv 160 / 168 40% 1 16.03.2027 -
Fotis Ioannidis Rio Ave Aktiv 141 / 135 40% 2 11.03.2027 -
Félix Lemaréchal Club Brugge Aktiv 136 / 138 40% 1 11.03.2027 -
Othmane Maamma Watford Aktiv 125 / 124 40% 1 08.03.2027 -
Xavi Simons Tottenham Aktiv 152 / 162 40% 1 08.03.2027 -
Hákon Arnar Haraldsson LOSC Lille Aktiv 145 / 148 40% 1 06.03.2027 -
Roberto Fernández Braga Verloren 145 / 141 40% 3 02.03.2027 -
Rémi Lemoine Chamois Niortais Aktiv 156 / 156 40% 1 26.02.2027 -
Leon Bailey Olympiacos Aktiv 142 / 141 40% 1 26.02.2027 -
Harry Wilson Leeds United Aktiv 141 / 140 40% 1 23.02.2027 -
Assane Diao Lazio Aktiv 148 / 149 40% 2 21.02.2027 -
Sofiane Diop OGC Nice Aktiv 144 / 139 40% 2 21.02.2027 -
Dominic Calvert-Lewin Leeds United Aktiv 138 / 142 40% 5 20.02.2027 -
Matt O'Riley Brighton Aktiv 148 / 146 40% 1 14.02.2027 -
Kerem Aktürkoğlu Fenerbahce Aktiv 138 / 138 40% 3 11.02.2027 -
Mamadou Diakhon Club Brugge Aktiv 112 / 122 40% 1 09.02.2027 -
Steven Bergwijn Al-Ittihad Aktiv 138 / 150 40% 3 04.02.2027 -
Youssef En-Nesyri Al-Ittihad Aktiv 156 / 133 40% 2 01.02.2027 -
Jørgen Strand Larsen Crystal Palace Aktiv 151 / 143 40% 2 30.01.2027 -
Kauã Elias Anderlecht Aktiv 127 / 136 40% 1 29.01.2027 -
Yoan Bonny Inter Aktiv 140 / 145 40% 1 27.01.2027 -
Nicolás Fernández Mercau Shakhtar Aktiv 134 / 134 67% 1 01.01.2027 Befürworten
Roberto Alvarado Monaco Aktiv 139 / 139 66% 1 01.01.2027 Befürworten
Mason Mount Manchester United Aktiv 158 / 154 40% 3 28.12.2026 -
Achraf Hakimi Paris Saint-Germain Aktiv 184 / 181 40% 2 25.12.2026 Mehr Infos nötig
Matheus Cunha Manchester United Aktiv 164 / 160 40% 4 23.12.2026 -
Ivan Toney Al-Ahli Aktiv 143 / 153 40% 1 21.12.2026 -
Kai Havertz Arsenal Aktiv 153 / 161 40% 7 20.12.2026 -
Aimé Omgba KAA Gent Aktiv 127 / 120 40% 1 19.12.2026 -
Bryan Mbeumo Manchester United Aktiv 151 / 158 40% 4 15.12.2026 -
Nico González Newcastle United Aktiv 170 / 165 40% 2 15.12.2026 -
Dom Ballard Leyton Orient Aktiv 113 / 128 40% 1 09.12.2026 -
Bradley Barcola Liverpool Aktiv 165 / 158 40% 2 04.12.2026 -
Mohammed Kudus Tottenham Aktiv 148 / 156 40% 6 02.12.2026 -
Jarrod Bowen West Ham United Aktiv 149 / 156 40% 2 01.12.2026 -
Diego Rossi Monterrey Aktiv 122 / 127 40% 1 29.11.2026 -
Agustín Palavecino Cruz Azul Aktiv 131 / 138 40% 1 29.11.2026 -
Pedro Porro Tottenham Aktiv 154 / 146 40% 1 29.11.2026 -
Jadon Sancho Manchester United Aktiv 155 / 147 40% 1 26.11.2026 -
Youri Tielemans Manchester United Aktiv 157 / 161 40% 1 19.11.2026 -
Ryan Sessegnon Fulham Aktiv 138 / 143 40% 1 19.11.2026 -
Jean-Philippe Mateta Crystal Palace Aktiv 160 / 149 40% 1 16.11.2026 -
William Saliba Arsenal Aktiv 182 / 173 40% 1 16.11.2026 -
Xaver Schlager Nottingham Forest Aktiv 160 / 151 40% 1 16.11.2026 -
Alexis Mac Allister Liverpool Aktiv 167 / 163 40% 2 15.11.2026 -
Ryan Gravenberch Liverpool Aktiv 155 / 160 40% 1 15.11.2026 -
Marcus Rashford Manchester United Aktiv 165 / 157 40% 2 09.11.2026 -
Gabriel Jesus Barcelona Aktiv 160 / 155 40% 7 07.11.2026 -
Gabriel Arsenal Aktiv 170 / 169 40% 1 05.11.2026 -
Levi Colwill Chelsea Aktiv 159 / 163 40% 1 05.11.2026 -
Federico Chiesa Liverpool Aktiv 148 / 155 40% 2 01.11.2026 -
Noussair Mazraoui Manchester United Aktiv 153 / 149 40% 2 01.11.2026 -
Willian Pacho Paris Saint-Germain Aktiv 167 / 165 40% 1 31.10.2026 -
Hector Ramirez Newcastle United Aktiv 156 / 157 40% 1 30.10.2026 -
Tino Livramento Newcastle United Aktiv 159 / 157 40% 2 29.10.2026 -
Yoane Wissa Newcastle United Aktiv 151 / 144 40% 1 28.10.2026 -
Adrien Truffert Bournemouth Aktiv 159 / 146 40% 1 27.10.2026 -
Lisandro Martínez Manchester United Aktiv 148 / 150 40% 1 27.10.2026 -
Morgan Rogers Chelsea Aktiv 155 / 158 40% 5 22.10.2026 -
Ousmane Dembélé Paris Saint-Germain Aktiv 178 / 182 40% 3 20.10.2026 -
Dominic Solanke Tottenham Aktiv 144 / 143 40% 1 18.10.2026 -
Florentino Luís Ipswich Town Aktiv 147 / 137 40% 1 15.10.2026 -
Breel Embolo Atlanta United FC Aktiv 122 / 140 40% 1 09.10.2026 -
Gabriel Martinelli Brighton Aktiv 156 / 162 40% 1 06.10.2026 -
Benjamin White Arsenal Aktiv 153 / 152 40% 1 27.09.2026 -
Rayan Cherki Manchester City Aktiv 153 / 165 40% 1 22.09.2026 -
Iliman N'Diaye Everton Aktiv 164 / 158 40% 1 20.09.2026 -
Martín Zubimendi Arsenal Aktiv 156 / 161 40% 1 18.09.2026 Mehr Infos nötig
Jurriën Timber Arsenal Aktiv 165 / 161 40% 1 18.09.2026 -
Jeremie Frimpong Liverpool Aktiv 148 / 161 40% 1 17.09.2026 -
Nico O'Reilly Manchester City Aktiv 142 / 156 40% 1 17.09.2026 -
Will Lankshear Middlesbrough Aktiv 113 / 126 40% 1 11.09.2026 -
Hugo Ekitiké Liverpool Aktiv 149 / 164 40% 1 10.09.2026 -
Ayase Ueda LOSC Lille Aktiv 143 / 143 40% 1 08.09.2026 -
Kelvin Amian FC Nantes Aktiv 114 / 123 58% 1 31.08.2026 -
João Gomes Aston Villa Aktiv 141 / 138 40% 1 17.08.2026 -
Allan Ackra Clermont Foot Aktiv 92 / 106 58% 1 03.08.2026 -
Antoine Semenyo Manchester City Aktiv 145 / 157 40% 1 02.08.2026 -
Bruno Guimarães Arsenal Aktiv 175 / 170 40% 1 02.08.2026 -